Time;durP1;ratioP1;P1;durP2;ratioP2;P2;SDS_P1;SDS_P2;PMS_P1;PMS_P2;Temp;Humidity;BMP_temperature;BMP_pressure;BME280_temperature;BME280_humidity;BME280_pressure;Samples;Min_cycle;Max_cycle;Signal;HPM_P1;HPM_P2
2022/11/16 00:01:16;;;;;;;8.20;7.20;;;10.50;99.90;;;;;;5100689;28;20137;-77
2022/11/16 00:03:42;;;;;;;9.15;8.25;;;10.50;99.90;;;;;;5100971;28;20493;-77
2022/11/16 00:06:09;;;;;;;9.38;8.00;;;10.50;99.90;;;;;;5099990;28;20173;-77
2022/11/16 00:08:38;;;;;;;9.68;8.68;;;10.50;99.90;;;;;;5117022;27;20043;-77
2022/11/16 00:11:04;;;;;;;9.40;8.43;;;10.60;99.90;;;;;;5101114;28;20517;-77
2022/11/16 00:13:34;;;;;;;9.82;8.38;;;10.50;99.90;;;;;;5099338;28;20043;-77
2022/11/16 00:16:00;;;;;;;11.45;8.82;;;10.50;99.90;;;;;;5097110;28;20055;-77
2022/11/16 00:18:27;;;;;;;9.80;8.25;;;10.70;99.90;;;;;;5108024;28;20048;-77
2022/11/16 00:20:52;;;;;;;10.05;8.23;;;10.50;99.90;;;;;;5104678;28;20047;-77
2022/11/16 00:23:18;;;;;;;10.55;8.57;;;10.50;99.90;;;;;;5108858;28;20048;-77
2022/11/16 00:25:44;;;;;;;9.85;8.80;;;10.50;99.90;;;;;;5106278;28;20103;-77
2022/11/16 00:28:10;;;;;;;10.00;8.77;;;10.50;99.90;;;;;;5106349;28;20046;-77
2022/11/16 00:30:35;;;;;;;10.85;9.23;;;10.60;99.90;;;;;;5085863;28;20516;-77
2022/11/16 00:33:05;;;;;;;10.13;9.13;;;10.50;99.90;;;;;;5106525;27;20054;-77
2022/11/16 00:35:31;;;;;;;9.80;8.27;;;10.50;99.90;;;;;;5082102;28;20035;-77
2022/11/16 00:37:57;;;;;;;10.15;9.15;;;10.50;99.90;;;;;;5099946;28;20046;-77
2022/11/16 00:40:23;;;;;;;10.52;9.13;;;10.50;99.90;;;;;;5099194;28;20419;-77
2022/11/16 00:42:48;;;;;;;10.80;8.90;;;10.50;99.90;;;;;;5098977;28;20745;-77
2022/11/16 00:45:14;;;;;;;11.65;8.82;;;10.50;99.90;;;;;;5099673;28;20052;-78
2022/11/16 00:47:39;;;;;;;12.30;9.18;;;10.50;99.90;;;;;;5099652;28;20051;-77
2022/11/16 00:50:05;;;;;;;9.70;8.40;;;10.50;99.90;;;;;;5098602;28;20505;-78
2022/11/16 00:52:31;;;;;;;12.15;8.88;;;10.50;99.90;;;;;;5101709;28;20399;-77
2022/11/16 00:54:56;;;;;;;10.73;9.30;;;10.60;99.90;;;;;;5101791;28;20043;-77
2022/11/16 00:57:23;;;;;;;11.10;9.90;;;10.60;99.90;;;;;;5099698;28;20534;-77
2022/11/16 00:59:48;;;;;;;10.10;9.05;;;10.60;99.90;;;;;;5098199;28;20085;-78
2022/11/16 01:02:14;;;;;;;10.75;8.98;;;10.60;99.90;;;;;;5082429;28;20066;-77
2022/11/16 01:04:39;;;;;;;10.43;8.63;;;10.60;99.90;;;;;;5100221;28;20047;-78
2022/11/16 01:07:05;;;;;;;11.57;9.65;;;10.60;99.90;;;;;;5084921;28;20522;-78
2022/11/16 01:09:31;;;;;;;11.15;9.30;;;10.60;99.90;;;;;;5098646;28;20078;-78
2022/11/16 01:12:08;;;;;;;12.55;8.82;;;10.60;99.90;;;;;;5107093;28;20058;-77
2022/11/16 01:14:39;;;;;;;9.80;8.35;;;10.60;99.90;;;;;;5100270;28;20080;-77
2022/11/16 01:17:05;;;;;;;10.40;9.25;;;10.60;99.90;;;;;;5105517;28;20501;-78
2022/11/16 01:19:31;;;;;;;12.27;8.93;;;10.30;99.90;;;;;;5099322;28;20138;-78
2022/11/16 01:21:57;;;;;;;12.05;9.35;;;10.60;99.90;;;;;;5099999;28;20473;-77
2022/11/16 01:24:24;;;;;;;13.48;8.93;;;10.60;99.90;;;;;;5099130;28;20035;-78
2022/11/16 01:26:49;;;;;;;11.43;8.98;;;10.60;99.90;;;;;;5100295;28;20047;-78
2022/11/16 01:29:15;;;;;;;10.98;8.80;;;10.60;99.90;;;;;;5108039;28;20043;-78
2022/11/16 01:31:41;;;;;;;10.02;8.77;;;10.70;99.90;;;;;;5100141;28;20467;-77
2022/11/16 01:34:07;;;;;;;9.77;8.73;;;10.70;99.90;;;;;;5108011;28;20054;-78
2022/11/16 01:36:35;;;;;;;10.23;8.55;;;10.70;99.90;;;;;;5105826;28;20039;-77
2022/11/16 01:39:01;;;;;;;10.82;8.50;;;10.70;99.90;;;;;;5103111;28;20122;-78
2022/11/16 01:41:29;;;;;;;9.23;8.18;;;10.70;99.90;;;;;;5102741;28;20139;-77
2022/11/16 01:44:01;;;;;;;10.68;8.93;;;10.70;99.90;;;;;;5120170;27;20334;-77
2022/11/16 01:46:28;;;;;;;9.10;8.07;;;10.70;99.90;;;;;;5096983;28;20040;-77
2022/11/16 01:49:00;;;;;;;9.60;8.32;;;10.70;99.90;;;;;;5105907;28;20040;-77
2022/11/16 01:51:26;;;;;;;10.18;7.65;;;10.70;99.90;;;;;;5097981;28;20055;-78
2022/11/16 01:53:52;;;;;;;10.32;8.38;;;10.70;99.90;;;;;;5099580;28;20173;-79
2022/11/16 01:56:19;;;;;;;9.73;8.23;;;10.70;99.90;;;;;;5098142;28;20040;-78
2022/11/16 01:58:45;;;;;;;9.55;8.38;;;11.00;99.90;;;;;;5099246;28;20039;-78
2022/11/16 02:01:11;;;;;;;11.40;8.73;;;10.70;99.90;;;;;;5099152;28;20048;-78
2022/11/16 02:03:37;;;;;;;9.88;8.27;;;10.70;99.90;;;;;;5097742;28;20124;-78
2022/11/16 02:06:08;;;;;;;9.73;8.48;;;10.80;99.90;;;;;;5096527;28;20044;-78
2022/11/16 02:11:59;;;;;;;9.98;8.25;;;10.80;99.90;;;;;;5109118;28;20074;-78
2022/11/16 02:15:02;;;;;;;9.98;7.75;;;10.70;99.90;;;;;;5110328;28;20052;-78
2022/11/16 02:17:41;;;;;;;9.93;8.10;;;10.70;99.90;;;;;;5111101;28;20185;-78
2022/11/16 02:20:41;;;;;;;8.18;6.93;;;10.80;99.90;;;;;;5106297;28;20063;-78
2022/11/16 02:23:33;;;;;;;8.18;7.38;;;10.70;99.90;;;;;;5091027;28;20051;-77
2022/11/16 02:26:14;;;;;;;;;;;10.70;99.90;;;;;;5101713;28;20755;-78
2022/11/16 02:29:02;;;;;;;9.98;7.25;;;10.80;99.90;;;;;;5118515;27;20414;-78
2022/11/16 02:31:35;;;;;;;9.90;7.80;;;10.70;99.90;;;;;;5084604;28;20035;-78
2022/11/16 02:34:02;;;;;;;9.57;7.10;;;10.70;99.90;;;;;;5102652;28;20040;-78
2022/11/16 02:36:27;;;;;;;8.45;7.07;;;10.80;99.90;;;;;;5086671;28;20044;-78
2022/11/16 02:39:02;;;;;;;9.10;7.05;;;10.80;99.90;;;;;;5101779;28;20516;-78
2022/11/16 02:41:32;;;;;;;7.88;6.70;;;10.80;99.90;;;;;;5101922;28;20055;-78
2022/11/16 02:44:16;;;;;;;9.20;6.93;;;10.70;99.90;;;;;;5101021;28;20369;-78
2022/11/16 02:46:45;;;;;;;10.25;7.38;;;10.70;99.90;;;;;;5106761;28;20047;-78
2022/11/16 02:49:16;;;;;;;9.48;6.72;;;10.70;99.90;;;;;;5108098;28;20201;-78
2022/11/16 02:51:43;;;;;;;12.15;7.00;;;10.80;99.90;;;;;;5107905;28;20044;-78
2022/11/16 02:54:14;;;;;;;9.27;7.20;;;10.70;99.90;;;;;;5108349;28;20548;-78
2022/11/16 02:56:51;;;;;;;9.15;6.88;;;10.70;99.90;;;;;;5108829;28;20039;-78
2022/11/16 02:59:17;;;;;;;10.38;6.85;;;10.70;99.90;;;;;;5104805;28;20052;-78
2022/11/16 03:01:51;;;;;;;8.18;6.50;;;10.70;99.90;;;;;;5107358;28;20052;-78
2022/11/16 03:04:27;;;;;;;9.23;6.95;;;10.70;99.90;;;;;;5106349;28;20492;-78
2022/11/16 03:06:55;;;;;;;9.35;6.80;;;10.70;99.90;;;;;;5104269;28;20043;-78
2022/11/16 03:09:26;;;;;;;7.85;7.05;;;10.70;99.90;;;;;;5109082;28;20048;-78
2022/11/16 03:11:58;;;;;;;9.40;7.00;;;10.70;99.90;;;;;;5107496;28;20056;-78
2022/11/16 03:14:48;;;;;;;9.00;7.20;;;10.70;99.90;;;;;;5109260;28;20055;-78
2022/11/16 03:17:25;;;;;;;10.05;6.72;;;10.70;99.90;;;;;;5105957;28;20051;-78
2022/11/16 03:20:03;;;;;;;9.05;7.22;;;10.70;99.90;;;;;;5090707;28;20047;-78
2022/11/16 03:22:51;;;;;;;9.65;7.65;;;10.70;99.90;;;;;;5103669;28;20055;-79
2022/11/16 03:25:19;;;;;;;11.43;7.55;;;10.70;99.90;;;;;;5110265;28;20051;-79
2022/11/16 03:27:54;;;;;;;9.98;7.40;;;10.70;99.90;;;;;;5108164;28;20043;-79
2022/11/16 03:30:22;;;;;;;10.02;7.75;;;10.70;99.90;;;;;;5087892;28;20062;-78
2022/11/16 03:32:59;;;;;;;9.55;7.70;;;10.70;99.90;;;;;;5102713;28;20043;-78
2022/11/16 03:35:40;;;;;;;9.15;7.75;;;10.70;99.90;;;;;;5105407;28;20047;-78
2022/11/16 03:38:08;;;;;;;10.90;7.85;;;10.70;99.90;;;;;;5099092;28;20080;-79
2022/11/16 03:40:36;;;;;;;9.55;7.80;;;10.60;99.90;;;;;;5107639;28;20520;-79
2022/11/16 03:43:03;;;;;;;9.65;7.75;;;10.60;99.90;;;;;;5108333;28;20505;-79
2022/11/16 03:45:30;;;;;;;10.43;8.48;;;10.60;99.90;;;;;;5106274;28;20094;-79
2022/11/16 03:47:56;;;;;;;12.13;8.27;;;10.60;99.90;;;;;;5125115;27;20055;-79
2022/11/16 03:50:22;;;;;;;13.10;8.98;;;10.60;99.90;;;;;;5090934;28;20044;-78
2022/11/16 03:52:50;;;;;;;10.25;8.05;;;10.60;99.90;;;;;;5107043;28;20462;-79
2022/11/16 03:55:16;;;;;;;10.35;8.93;;;10.60;99.90;;;;;;5108605;28;20055;-79
2022/11/16 03:57:42;;;;;;;12.60;9.48;;;10.60;99.90;;;;;;5106368;28;20421;-78
2022/11/16 04:00:08;;;;;;;11.25;9.40;;;10.60;99.90;;;;;;5106776;28;20607;-78
2022/11/16 04:02:34;;;;;;;15.23;9.75;;;10.50;99.90;;;;;;5109374;28;20046;-78
2022/11/16 04:24:31;;;;;;;12.43;10.52;;;10.50;99.90;;;;;;5099623;28;20040;-78
2022/11/16 04:29:47;;;;;;;11.52;9.40;;;9.50;99.90;;;;;;5100148;28;20048;-78
2022/11/16 04:37:51;;;;;;;12.18;9.63;;;10.50;99.90;;;;;;5100530;28;20047;-78
2022/11/16 04:40:33;;;;;;;12.13;10.13;;;10.50;99.90;;;;;;5099367;28;20047;-78
2022/11/16 04:43:00;;;;;;;14.07;10.45;;;10.50;99.90;;;;;;5099498;28;20088;-77
2022/11/16 04:48:12;;;;;;;12.27;10.23;;;10.40;99.90;;;;;;5115859;27;20059;-77
2022/11/16 04:50:39;;;;;;;14.00;10.10;;;10.40;99.90;;;;;;5098812;28;21088;-78
2022/11/16 04:53:06;;;;;;;14.65;10.40;;;10.40;99.90;;;;;;5100743;28;21526;-78
2022/11/16 04:55:33;;;;;;;12.63;10.10;;;10.50;99.90;;;;;;5105414;28;20044;-78
2022/11/16 04:57:59;;;;;;;14.73;11.43;;;10.50;99.90;;;;;;5107858;28;20066;-77
2022/11/16 05:00:25;;;;;;;13.88;10.32;;;10.40;99.90;;;;;;5100956;28;20093;-78
2022/11/16 05:02:51;;;;;;;14.00;11.20;;;10.40;99.90;;;;;;5098179;28;20059;-77
2022/11/16 05:05:16;;;;;;;15.02;11.45;;;10.50;99.90;;;;;;5105619;28;20067;-78
2022/11/16 05:07:43;;;;;;;13.23;10.68;;;10.50;99.90;;;;;;5098018;28;20054;-78
2022/11/16 05:10:10;;;;;;;15.23;11.80;;;10.50;99.90;;;;;;5103568;28;20079;-77
2022/11/16 05:12:35;;;;;;;12.38;10.90;;;10.50;99.90;;;;;;5105589;28;20095;-78
2022/11/16 05:15:02;;;;;;;14.07;11.45;;;10.50;99.90;;;;;;5107425;28;20043;-78
2022/11/16 05:17:28;;;;;;;14.55;11.60;;;10.40;99.90;;;;;;5102418;28;20512;-78
2022/11/16 05:22:38;;;;;;;18.65;14.00;;;10.50;99.90;;;;;;5107330;28;20561;-78
2022/11/16 05:25:06;;;;;;;16.80;12.95;;;10.50;99.90;;;;;;5123554;27;20126;-78
2022/11/16 05:27:31;;;;;;;19.75;15.20;;;10.50;99.90;;;;;;5085435;28;20036;-78
2022/11/16 05:29:57;;;;;;;22.20;17.40;;;10.40;99.90;;;;;;5090456;28;20052;-78
2022/11/16 05:32:24;;;;;;;25.02;21.45;;;10.40;99.90;;;;;;5082565;28;20123;-78
2022/11/16 05:34:50;;;;;;;30.45;23.80;;;10.40;99.90;;;;;;5099330;28;20501;-78
2022/11/16 05:37:16;;;;;;;40.05;31.45;;;10.40;99.90;;;;;;5098165;28;20050;-78
2022/11/16 05:39:42;;;;;;;56.08;43.67;;;10.40;99.90;;;;;;5098598;28;20043;-78
2022/11/16 05:42:07;;;;;;;68.68;49.25;;;10.40;99.90;;;;;;5098064;28;20044;-78
2022/11/16 05:44:33;;;;;;;70.05;49.53;;;10.40;99.90;;;;;;5097230;28;20852;-78
2022/11/16 05:46:59;;;;;;;64.40;48.92;;;10.40;99.90;;;;;;5098164;28;20156;-78
2022/11/16 05:49:24;;;;;;;79.25;53.42;;;10.40;99.90;;;;;;5098258;28;20039;-78
2022/11/16 05:51:50;;;;;;;68.00;50.35;;;10.40;99.90;;;;;;5098551;28;20052;-78
2022/11/16 05:54:18;;;;;;;71.38;49.30;;;10.40;99.90;;;;;;5083242;28;20071;-78
2022/11/16 05:56:44;;;;;;;56.00;42.25;;;10.40;99.90;;;;;;5100173;28;20078;-78
2022/11/16 05:59:16;;;;;;;53.28;39.42;;;10.40;99.90;;;;;;5104957;28;20047;-78
2022/11/16 06:01:42;;;;;;;45.75;29.25;;;9.80;99.90;;;;;;5082368;28;20466;-78
2022/11/16 06:04:08;;;;;;;21.70;15.75;;;10.40;99.90;;;;;;5082196;28;20052;-78
2022/11/16 06:06:33;;;;;;;20.52;16.50;;;10.30;99.90;;;;;;5097026;28;20088;-78
2022/11/16 06:08:59;;;;;;;18.67;14.43;;;10.40;99.90;;;;;;5099242;28;20051;-78
2022/11/16 06:11:25;;;;;;;17.00;12.73;;;10.40;99.90;;;;;;5097027;28;20063;-78
2022/11/16 06:13:51;;;;;;;20.98;13.13;;;10.40;99.90;;;;;;5098319;28;20170;-78
2022/11/16 06:16:17;;;;;;;22.05;13.05;;;10.40;99.90;;;;;;5082693;28;20420;-78
2022/11/16 06:18:44;;;;;;;20.63;13.93;;;10.40;99.90;;;;;;5103835;28;20047;-78
2022/11/16 06:21:12;;;;;;;18.00;12.77;;;10.40;99.90;;;;;;5099087;28;20517;-78
2022/11/16 06:23:37;;;;;;;20.40;13.40;;;10.40;99.90;;;;;;5104911;28;20108;-76
2022/11/16 06:26:04;;;;;;;21.23;14.40;;;10.40;99.90;;;;;;5081006;28;20043;-79
2022/11/16 06:28:30;;;;;;;18.38;13.60;;;10.40;99.90;;;;;;5097541;28;20124;-78
2022/11/16 06:30:56;;;;;;;16.38;12.95;;;10.50;99.90;;;;;;5104639;28;20085;-77
2022/11/16 06:33:21;;;;;;;18.20;13.43;;;10.50;99.90;;;;;;5100157;28;20066;-77
2022/11/16 06:35:47;;;;;;;15.35;10.70;;;10.50;99.90;;;;;;5080737;28;20205;-78
2022/11/16 06:38:17;;;;;;;17.75;12.90;;;10.50;99.90;;;;;;5098030;28;20031;-77
2022/11/16 06:40:44;;;;;;;20.67;13.38;;;10.50;99.90;;;;;;5107307;28;20101;-77
2022/11/16 06:43:10;;;;;;;17.33;13.27;;;10.50;99.90;;;;;;5102849;28;20065;-78
2022/11/16 06:45:36;;;;;;;15.63;11.73;;;10.50;99.90;;;;;;5105923;28;20051;-77
2022/11/16 06:48:01;;;;;;;16.60;11.85;;;10.50;99.90;;;;;;5103850;28;20498;-77
2022/11/16 06:50:27;;;;;;;17.15;12.63;;;10.50;99.90;;;;;;5106435;28;20046;-78
2022/11/16 06:52:52;;;;;;;18.02;12.10;;;10.50;99.90;;;;;;5088647;28;20116;-79
2022/11/16 06:55:18;;;;;;;16.10;12.70;;;10.50;99.90;;;;;;5107079;28;20453;-79
2022/11/16 06:57:45;;;;;;;16.13;12.45;;;10.50;99.90;;;;;;5105222;28;20095;-79
2022/11/16 07:00:11;;;;;;;20.45;12.85;;;10.40;99.90;;;;;;5111234;28;20063;-79
2022/11/16 07:02:38;;;;;;;16.83;12.25;;;10.40;99.90;;;;;;5093061;28;20063;-79
2022/11/16 07:05:04;;;;;;;19.98;12.70;;;10.40;99.90;;;;;;5111400;28;20070;-79
2022/11/16 07:07:33;;;;;;;17.77;12.00;;;10.50;99.90;;;;;;5107997;28;20119;-81
2022/11/16 07:09:59;;;;;;;16.23;11.35;;;10.50;99.90;;;;;;5110298;28;20040;-78
2022/11/16 07:12:25;;;;;;;16.85;12.75;;;10.40;99.90;;;;;;5109576;28;20055;-78
2022/11/16 07:14:51;;;;;;;16.45;12.50;;;10.50;99.90;;;;;;5109972;28;20064;-78
2022/11/16 07:17:16;;;;;;;17.65;12.40;;;10.40;99.90;;;;;;5110420;28;20047;-77
2022/11/16 07:19:42;;;;;;;16.63;12.30;;;10.40;99.90;;;;;;5110747;27;20047;-78
2022/11/16 07:22:07;;;;;;;17.90;12.48;;;10.40;99.90;;;;;;5104126;28;20457;-77
2022/11/16 07:24:33;;;;;;;12.70;9.60;;;10.50;99.90;;;;;;5105273;28;20489;-77
2022/11/16 07:26:58;;;;;;;17.80;11.90;;;10.40;99.90;;;;;;5107261;28;20040;-77
2022/11/16 07:29:24;;;;;;;20.70;13.23;;;10.90;99.90;;;;;;5108785;28;20554;-77
2022/11/16 07:31:50;;;;;;;15.45;11.40;;;10.40;99.90;;;;;;5110060;28;20040;-76
2022/11/16 07:34:15;;;;;;;14.30;10.75;;;10.40;99.90;;;;;;5110779;28;20039;-77
2022/11/16 07:36:41;;;;;;;17.02;11.85;;;10.40;99.90;;;;;;5110425;28;20044;-77
2022/11/16 07:39:09;;;;;;;13.30;11.48;;;10.40;99.90;;;;;;5110915;28;20477;-77
2022/11/16 07:41:35;;;;;;;15.68;12.20;;;10.40;99.90;;;;;;5110347;28;20099;-77
2022/11/16 07:44:00;;;;;;;12.55;10.60;;;10.30;99.90;;;;;;5110221;28;20040;-77
2022/11/16 07:46:26;;;;;;;14.70;11.35;;;10.30;99.90;;;;;;5108314;28;20048;-77
2022/11/16 07:48:52;;;;;;;14.95;11.15;;;10.30;99.90;;;;;;5109441;28;20047;-78
2022/11/16 07:51:18;;;;;;;16.58;12.13;;;10.30;99.90;;;;;;5096585;28;20052;-78
2022/11/16 07:53:44;;;;;;;19.95;11.18;;;10.30;99.90;;;;;;5109284;28;20039;-76
2022/11/16 07:56:11;;;;;;;11.73;9.88;;;10.30;99.90;;;;;;5103133;28;20490;-77
2022/11/16 07:58:37;;;;;;;14.18;10.00;;;10.30;99.90;;;;;;5088886;28;20733;-75
2022/11/16 08:01:06;;;;;;;12.85;10.20;;;10.30;99.90;;;;;;5107842;28;20447;-75
2022/11/16 08:03:32;;;;;;;14.57;10.00;;;10.30;99.90;;;;;;5107206;28;20112;-76
2022/11/16 08:06:07;;;;;;;11.38;8.27;;;10.20;99.90;;;;;;5108883;28;20047;-76
2022/11/16 08:08:33;;;;;;;11.88;8.93;;;10.30;99.90;;;;;;5107853;28;20047;-76
2022/11/16 08:11:04;;;;;;;11.98;8.32;;;10.30;99.90;;;;;;5108004;28;20063;-76
2022/11/16 08:13:33;;;;;;;11.65;8.77;;;10.20;99.90;;;;;;5109849;28;20062;-76
2022/11/16 08:16:12;;;;;;;11.43;7.75;;;10.20;99.90;;;;;;5110021;28;20442;-76
2022/11/16 08:18:38;;;;;;;10.32;7.57;;;10.20;99.90;;;;;;5109959;28;20043;-75
2022/11/16 08:21:06;;;;;;;11.57;7.85;;;10.20;99.90;;;;;;5108275;28;20050;-76
2022/11/16 08:23:32;;;;;;;9.55;7.70;;;10.20;99.90;;;;;;5109014;28;20036;-75
2022/11/16 08:26:04;;;;;;;9.00;6.63;;;10.20;99.90;;;;;;5109204;28;20043;-76
2022/11/16 08:28:30;;;;;;;11.65;7.22;;;10.20;99.90;;;;;;5107949;28;20059;-76
2022/11/16 08:30:57;;;;;;;8.50;6.47;;;10.20;99.90;;;;;;5106352;28;20496;-76
2022/11/16 08:33:24;;;;;;;9.63;7.20;;;10.30;99.90;;;;;;5108185;28;20074;-75
2022/11/16 08:35:51;;;;;;;8.25;6.70;;;10.30;99.90;;;;;;5107886;28;20602;-76
2022/11/16 08:38:19;;;;;;;9.32;7.05;;;10.30;99.90;;;;;;5124992;27;20078;-76
2022/11/16 08:40:45;;;;;;;7.50;5.68;;;10.30;99.90;;;;;;5108727;28;20051;-75
2022/11/16 08:43:11;;;;;;;8.73;6.63;;;10.30;99.90;;;;;;5072166;28;20165;-76
2022/11/16 08:45:37;;;;;;;7.93;6.70;;;10.30;99.90;;;;;;5090245;28;20039;-76
2022/11/16 08:48:04;;;;;;;9.23;6.85;;;10.30;99.90;;;;;;5107959;28;20082;-76
2022/11/16 08:50:30;;;;;;;9.23;6.75;;;10.30;99.90;;;;;;5108107;28;20035;-76
2022/11/16 08:52:56;;;;;;;9.57;7.35;;;10.40;99.90;;;;;;5109204;28;20159;-76
2022/11/16 08:55:22;;;;;;;10.95;7.63;;;10.40;99.90;;;;;;5108567;28;20048;-76
2022/11/16 08:57:47;;;;;;;30.52;19.00;;;10.40;99.90;;;;;;5107548;28;20085;-76
2022/11/16 09:00:13;;;;;;;27.35;19.23;;;10.50;99.90;;;;;;5089558;28;20056;-76
2022/11/16 09:02:39;;;;;;;41.97;27.40;;;10.60;99.90;;;;;;5109221;28;20103;-76
2022/11/16 09:05:06;;;;;;;44.90;26.92;;;10.60;99.90;;;;;;5107377;28;20047;-76
2022/11/16 09:07:33;;;;;;;45.95;31.20;;;10.70;99.90;;;;;;5108857;28;20044;-77
2022/11/16 09:09:58;;;;;;;57.60;36.55;;;10.70;99.90;;;;;;5106906;28;20058;-77
2022/11/16 09:12:24;;;;;;;55.22;36.03;;;10.80;99.90;;;;;;5102912;28;20105;-77
2022/11/16 09:14:50;;;;;;;62.78;39.10;;;11.20;99.90;;;;;;5105260;28;20489;-77
2022/11/16 09:17:15;;;;;;;66.72;41.65;;;10.90;99.90;;;;;;5108782;28;20108;-77
2022/11/16 09:19:41;;;;;;;65.05;41.40;;;11.00;99.90;;;;;;5104327;28;20055;-77
2022/11/16 09:22:07;;;;;;;64.85;41.03;;;11.10;99.90;;;;;;5102322;28;20048;-77
2022/11/16 09:24:33;;;;;;;52.60;33.45;;;11.10;99.90;;;;;;5085153;28;20047;-77
2022/11/16 09:27:00;;;;;;;51.17;31.67;;;11.20;99.90;;;;;;5095392;28;20059;-77
2022/11/16 09:29:26;;;;;;;35.28;23.55;;;11.20;99.90;;;;;;5105357;28;20051;-77
2022/11/16 09:31:53;;;;;;;24.30;17.38;;;11.30;99.90;;;;;;5107524;28;20044;-77
2022/11/16 09:34:18;;;;;;;25.75;17.38;;;11.30;99.90;;;;;;5108617;28;20051;-77
2022/11/16 09:36:44;;;;;;;22.15;15.18;;;11.40;99.90;;;;;;5105347;28;20350;-77
2022/11/16 09:39:11;;;;;;;18.92;14.27;;;11.50;99.90;;;;;;5107035;28;20043;-76
2022/11/16 09:41:46;;;;;;;18.75;13.75;;;11.60;99.90;;;;;;5106696;28;20036;-76
2022/11/16 09:44:32;;;;;;;19.17;15.20;;;11.60;99.90;;;;;;5088211;28;20050;-77
2022/11/16 09:47:00;;;;;;;18.48;12.73;;;11.70;99.90;;;;;;5107120;28;20128;-79
2022/11/16 09:49:49;;;;;;;18.15;12.57;;;11.70;99.90;;;;;;5108867;28;20077;-76
2022/11/16 09:52:39;;;;;;;17.50;12.63;;;11.70;99.90;;;;;;5106775;28;20047;-76
2022/11/16 09:55:31;;;;;;;18.13;12.48;;;11.80;99.90;;;;;;5106984;28;20051;-76
2022/11/16 09:58:00;;;;;;;17.80;12.10;;;11.90;99.90;;;;;;5106352;28;20074;-77
2022/11/16 10:00:27;;;;;;;16.67;12.93;;;12.00;99.90;;;;;;5107171;28;20125;-77
2022/11/16 10:02:58;;;;;;;17.33;12.20;;;12.00;99.90;;;;;;5106361;28;20047;-76
2022/11/16 10:05:30;;;;;;;17.13;11.85;;;12.10;99.90;;;;;;5106820;28;20512;-76
2022/11/16 10:08:11;;;;;;;21.77;13.68;;;12.20;99.90;;;;;;5106446;28;20055;-77
2022/11/16 10:10:42;;;;;;;17.58;12.63;;;12.40;99.90;;;;;;5106733;28;20115;-77
2022/11/16 10:13:16;;;;;;;15.90;12.05;;;12.50;99.90;;;;;;5106731;28;20485;-77
2022/11/16 10:15:54;;;;;;;16.02;11.32;;;12.50;99.90;;;;;;5106685;28;20442;-76
2022/11/16 10:18:44;;;;;;;13.93;11.52;;;12.60;99.90;;;;;;5105590;28;20036;-77
2022/11/16 10:21:17;;;;;;;16.98;11.20;;;12.60;99.90;;;;;;5107553;28;20051;-76
2022/11/16 10:24:02;;;;;;;12.80;10.70;;;;;;;;;;5106493;28;20047;-76
2022/11/16 10:26:27;;;;;;;13.45;10.20;;;12.60;99.90;;;;;;5106040;28;20075;-77
2022/11/16 10:29:20;;;;;;;9.73;8.73;;;12.80;99.90;;;;;;5088269;28;20133;-76
2022/11/16 10:32:02;;;;;;;11.27;8.70;;;12.90;99.90;;;;;;5108065;28;20149;-76
2022/11/16 10:34:36;;;;;;;9.13;7.60;;;13.00;99.90;;;;;;5110082;28;20044;-76
2022/11/16 10:37:05;;;;;;;10.20;7.70;;;13.30;99.90;;;;;;5106854;28;20381;-77
2022/11/16 10:39:33;;;;;;;11.52;7.10;;;13.20;99.90;;;;;;5091740;28;20051;-76
2022/11/16 10:42:04;;;;;;;10.55;8.20;;;13.20;99.90;;;;;;5089374;28;20688;-77
2022/11/16 10:45:19;;;;;;;12.68;7.18;;;13.30;99.90;;;;;;5098623;28;20093;-77
2022/11/16 10:47:50;;;;;;;7.15;6.30;;;13.10;99.90;;;;;;5045326;28;20056;-76
2022/11/16 10:50:24;;;;;;;8.17;4.93;;;13.10;99.90;;;;;;5090823;28;20116;-76
2022/11/16 10:52:50;;;;;;;7.25;5.00;;;13.00;99.90;;;;;;5110811;28;20044;-77
2022/11/16 10:55:19;;;;;;;9.05;4.45;;;12.80;99.90;;;;;;5093333;28;20046;-77
2022/11/16 10:58:03;;;;;;;8.48;4.80;;;12.80;99.90;;;;;;5110180;28;20162;-76
2022/11/16 11:00:40;;;;;;;5.93;5.13;;;12.70;99.90;;;;;;5110110;28;20138;-76
2022/11/16 11:03:06;;;;;;;7.18;4.25;;;12.70;99.90;;;;;;5107959;28;20059;-77
2022/11/16 11:05:34;;;;;;;6.85;4.30;;;12.70;99.90;;;;;;5110300;28;20047;-76
2022/11/16 11:08:02;;;;;;;10.43;4.57;;;12.70;99.90;;;;;;5111291;28;20169;-76
2022/11/16 11:10:40;;;;;;;11.60;4.80;;;12.70;99.90;;;;;;5108602;28;20417;-76
2022/11/16 11:13:09;;;;;;;7.70;4.63;;;12.70;99.90;;;;;;5088665;28;20486;-76
2022/11/16 11:15:36;;;;;;;7.88;4.55;;;12.70;99.90;;;;;;5102876;28;20409;-76
2022/11/16 11:18:28;;;;;;;7.68;4.03;;;12.60;99.90;;;;;;5108542;28;20142;-76
2022/11/16 11:21:08;;;;;;;7.35;3.95;;;12.60;99.90;;;;;;5103875;28;20400;-76
2022/11/16 11:23:55;;;;;;;6.65;3.67;;;12.60;99.90;;;;;;5110273;28;20036;-76
2022/11/16 11:26:28;;;;;;;7.43;3.60;;;12.60;99.90;;;;;;5100195;28;20039;-76
2022/11/16 11:28:55;;;;;;;8.15;3.83;;;12.90;99.90;;;;;;5106212;28;20038;-76
2022/11/16 11:31:41;;;;;;;6.50;3.42;;;12.90;99.90;;;;;;5108929;28;20043;-76
2022/11/16 11:34:28;;;;;;;6.07;3.35;;;13.60;99.90;;;;;;5104204;28;20043;-77
2022/11/16 11:36:59;;;;;;;7.43;3.53;;;13.00;99.90;;;;;;5106516;28;20047;-76
2022/11/16 11:39:29;;;;;;;6.93;3.35;;;12.90;99.90;;;;;;5104839;28;20460;-76
2022/11/16 11:42:12;;;;;;;8.52;3.55;;;13.20;99.90;;;;;;5106633;28;20048;-76
2022/11/16 11:44:50;;;;;;;5.78;3.33;;;13.40;99.90;;;;;;5109786;28;20079;-76
2022/11/16 11:48:07;;;;;;;8.55;3.83;;;13.10;99.90;;;;;;5109029;28;20114;-76
2022/11/16 11:50:55;;;;;;;5.95;3.40;;;13.30;99.90;;;;;;5091477;27;20092;-76
2022/11/16 11:53:51;;;;;;;8.60;3.00;;;13.40;99.90;;;;;;5124794;27;20048;-76
2022/11/16 11:56:18;;;;;;;5.57;2.60;;;13.20;99.90;;;;;;5108945;28;20441;-77
2022/11/16 11:58:45;;;;;;;7.00;3.05;;;13.10;99.90;;;;;;5108390;28;20580;-77
2022/11/16 12:01:34;;;;;;;6.25;2.90;;;13.10;99.90;;;;;;5106814;28;20062;-77
2022/11/16 12:04:27;;;;;;;4.78;2.72;;;13.10;99.90;;;;;;5108947;28;20062;-77
2022/11/16 12:07:19;;;;;;;3.92;2.60;;;13.10;99.90;;;;;;5109142;28;20044;-76
2022/11/16 12:10:03;;;;;;;10.05;3.33;;;13.00;99.90;;;;;;5108840;28;20044;-76
2022/11/16 12:12:56;;;;;;;3.42;2.35;;;13.10;99.90;;;;;;5109659;28;20050;-76
2022/11/16 12:15:40;;;;;;;7.13;3.00;;;13.10;99.90;;;;;;5082572;28;20051;-76
2022/11/16 12:18:09;;;;;;;7.15;2.70;;;13.10;99.90;;;;;;5106333;28;20047;-77
2022/11/16 12:20:56;;;;;;;4.30;2.35;;;13.40;99.90;;;;;;5108732;28;20048;-76
2022/11/16 12:23:38;;;;;;;9.68;2.88;;;13.20;99.90;;;;;;5109701;28;20059;-76
2022/11/16 12:26:13;;;;;;;6.17;2.90;;;13.10;99.90;;;;;;5108935;28;20559;-76
2022/11/16 12:28:57;;;;;;;6.53;2.78;;;13.10;99.90;;;;;;5108010;28;20054;-76
2022/11/16 12:31:32;;;;;;;5.10;3.05;;;13.10;99.90;;;;;;5109733;28;20092;-76
2022/11/16 12:34:13;;;;;;;6.80;2.97;;;13.00;99.90;;;;;;5086737;28;20044;-76
2022/11/16 12:37:11;;;;;;;9.13;2.72;;;13.00;99.90;;;;;;5089098;28;20468;-76
2022/11/16 12:39:51;;;;;;;13.45;2.78;;;12.90;99.90;;;;;;5104100;28;20056;-76
2022/11/16 12:42:35;;;;;;;7.35;3.00;;;12.80;99.90;;;;;;5073858;28;20053;-75
2022/11/16 12:45:04;;;;;;;13.52;2.88;;;12.70;99.90;;;;;;5108730;28;20130;-76
2022/11/16 12:47:52;;;;;;;5.70;2.80;;;12.80;99.90;;;;;;5087982;28;20050;-76
2022/11/16 12:50:31;;;;;;;5.57;3.00;;;12.90;99.90;;;;;;5090138;28;20044;-77
2022/11/16 12:53:14;;;;;;;7.22;3.00;;;12.90;99.90;;;;;;5108327;28;20108;-76
2022/11/16 12:55:46;;;;;;;;;;;12.90;99.90;;;;;;5107640;28;20044;-77
2022/11/16 12:58:45;;;;;;;9.52;3.13;;;12.80;99.90;;;;;;5108153;28;19920;-77
2022/11/16 13:01:25;;;;;;;7.65;3.13;;;12.80;99.90;;;;;;5108919;28;20044;-77
2022/11/16 13:04:00;;;;;;;12.38;2.67;;;12.80;99.90;;;;;;5107671;28;20541;-77
2022/11/16 13:06:44;;;;;;;6.68;2.88;;;12.70;99.90;;;;;;5108686;28;20110;-77
2022/11/16 13:09:15;;;;;;;7.43;3.10;;;12.80;99.90;;;;;;5107565;28;20066;-76
2022/11/16 13:11:50;;;;;;;6.68;3.60;;;12.80;99.90;;;;;;5108270;28;20043;-77
2022/11/16 13:14:20;;;;;;;7.97;2.85;;;12.80;99.90;;;;;;5089954;28;20058;-77
2022/11/16 13:16:47;;;;;;;8.68;2.85;;;12.90;99.90;;;;;;5107083;28;20052;-77
2022/11/16 13:19:15;;;;;;;9.43;2.53;;;12.90;99.90;;;;;;5108108;28;20127;-77
2022/11/16 13:21:48;;;;;;;7.03;2.10;;;12.90;99.90;;;;;;5107168;28;20040;-76
2022/11/16 13:24:36;;;;;;;5.20;2.30;;;12.80;99.90;;;;;;5106599;28;20054;-76
2022/11/16 13:27:23;;;;;;;10.50;3.22;;;12.80;99.90;;;;;;5087145;28;20494;-77
2022/11/16 13:29:53;;;;;;;10.32;2.28;;;12.70;99.90;;;;;;5107247;28;20043;-77
2022/11/16 13:32:31;;;;;;;6.70;2.15;;;12.60;99.90;;;;;;5108334;28;20039;-76
2022/11/16 13:34:58;;;;;;;7.30;2.15;;;12.60;99.90;;;;;;5105998;28;20413;-76